Time;durP1;ratioP1;P1;durP2;ratioP2;P2;SDS_P1;SDS_P2;PMS_P1;PMS_P2;Temp;Humidity;BMP_temperature;BMP_pressure;BME280_temperature;BME280_humidity;BME280_pressure;Samples;Min_cycle;Max_cycle;Signal;HPM_P1;HPM_P2
2023/11/15 00:00:56;;;;;;;1.58;0.65;;;;;;;;;;5047946;28;20414;-54
2023/11/15 00:03:22;;;;;;;4.15;0.80;;;;;;;;;;5047748;28;20041;-55
2023/11/15 00:05:48;;;;;;;1.38;0.60;;;;;;;;;;5046974;28;20060;-55
2023/11/15 00:08:20;;;;;;;1.10;0.73;;;;;;;;;;5048787;28;20532;-54
2023/11/15 00:10:47;;;;;;;0.77;0.50;;;;;;;;;;5048114;28;20514;-53
2023/11/15 00:13:19;;;;;;;1.13;0.70;;;;;;;;;;5048249;28;20506;-53
2023/11/15 00:15:45;;;;;;;0.80;0.68;;;;;;;;;;5046087;28;20052;-54
2023/11/15 00:18:13;;;;;;;0.47;0.47;;;;;;;;;;5047193;28;20052;-55
2023/11/15 00:20:39;;;;;;;3.92;0.75;;;;;;;;;;5040058;28;20045;-56
2023/11/15 00:23:05;;;;;;;1.15;0.68;;;;;;;;;;5025304;28;20044;-56
2023/11/15 00:25:32;;;;;;;0.75;0.40;;;;;;;;;;5036801;28;20040;-58
2023/11/15 00:27:58;;;;;;;0.85;0.55;;;;;;;;;;5046643;28;20032;-56
2023/11/15 00:30:25;;;;;;;1.52;0.60;;;;;;;;;;5045547;28;20044;-56
2023/11/15 00:32:51;;;;;;;1.45;0.90;;;;;;;;;;5047283;28;20485;-58
2023/11/15 00:35:17;;;;;;;1.15;0.57;;;;;;;;;;5046922;28;20574;-58
2023/11/15 00:37:45;;;;;;;3.15;0.70;;;;;;;;;;5046581;28;20489;-58
2023/11/15 00:40:13;;;;;;;1.30;0.50;;;;;;;;;;5039238;28;20037;-57
2023/11/15 00:42:40;;;;;;;2.72;0.98;;;;;;;;;;5048358;28;20033;-56
2023/11/15 00:45:08;;;;;;;1.58;0.68;;;;;;;;;;5044756;28;20033;-55
2023/11/15 00:47:35;;;;;;;1.67;0.70;;;;;;;;;;5047810;28;20029;-56
2023/11/15 00:50:02;;;;;;;2.83;1.00;;;;;;;;;;5046604;28;20049;-57
2023/11/15 00:52:28;;;;;;;3.13;0.77;;;;;;;;;;5047167;28;20032;-55
2023/11/15 00:54:54;;;;;;;3.45;0.80;;;;;;;;;;5045694;28;20044;-54
2023/11/15 00:57:20;;;;;;;1.58;0.60;;;;;;;;;;5043640;28;20417;-56
2023/11/15 00:59:47;;;;;;;1.45;0.80;;;;;;;;;;5047245;28;20040;-56
2023/11/15 01:02:14;;;;;;;3.60;0.77;;;;;;;;;;5047784;28;20049;-57
2023/11/15 01:04:41;;;;;;;4.75;0.90;;;;;;;;;;5044541;28;20048;-54
2023/11/15 01:07:07;;;;;;;2.25;0.68;;;;;;;;;;5045290;28;20045;-55
2023/11/15 01:09:36;;;;;;;1.30;0.70;;;;;;;;;;5046368;28;20044;-54
2023/11/15 01:12:04;;;;;;;1.45;0.70;;;;;;;;;;5041748;28;20036;-56
2023/11/15 01:14:31;;;;;;;3.95;0.70;;;;;;;;;;5047018;28;20091;-53
2023/11/15 01:16:57;;;;;;;1.05;0.73;;;;;;;;;;5045040;28;20477;-56
2023/11/15 01:19:23;;;;;;;1.88;0.60;;;;;;;;;;5040468;28;20060;-55
2023/11/15 01:21:50;;;;;;;1.38;0.65;;;;;;;;;;5040566;28;20030;-55
2023/11/15 01:24:16;;;;;;;1.65;0.70;;;;;;;;;;5047757;28;20048;-56
2023/11/15 01:26:43;;;;;;;1.75;0.52;;;;;;;;;;5044788;28;20498;-55
2023/11/15 01:29:09;;;;;;;1.60;0.60;;;;;;;;;;5044314;28;20052;-56
2023/11/15 01:31:35;;;;;;;2.33;0.60;;;;;;;;;;5046595;28;20032;-56
2023/11/15 01:34:01;;;;;;;2.65;0.52;;;;;;;;;;5028819;28;20525;-57
2023/11/15 01:36:27;;;;;;;1.38;0.52;;;;;;;;;;5044062;28;20052;-57
2023/11/15 01:38:54;;;;;;;0.82;0.60;;;;;;;;;;5044941;28;20056;-57
2023/11/15 01:41:20;;;;;;;2.67;0.50;;;;;;;;;;5047761;28;20402;-56
2023/11/15 01:43:46;;;;;;;2.15;0.60;;;;;;;;;;5045478;28;20033;-55
2023/11/15 01:46:19;;;;;;;1.52;0.73;;;;;;;;;;5043691;28;20033;-56
2023/11/15 01:48:47;;;;;;;3.47;0.90;;;;;;;;;;5047240;28;20239;-54
2023/11/15 01:51:14;;;;;;;1.20;0.80;;;;;;;;;;5047393;28;20037;-54
2023/11/15 01:53:41;;;;;;;1.35;0.63;;;;;;;;;;5047624;28;20033;-55
2023/11/15 01:56:08;;;;;;;2.25;0.70;;;;;;;;;;5046155;28;20060;-56
2023/11/15 01:58:35;;;;;;;1.42;0.80;;;;;;;;;;5046241;28;20037;-56
2023/11/15 02:01:05;;;;;;;1.52;0.75;;;;;;;;;;5047819;28;20053;-57
2023/11/15 02:03:31;;;;;;;0.63;0.60;;;;;;;;;;5052294;28;20037;-57
2023/11/15 02:05:59;;;;;;;1.13;0.57;;;;;;;;;;5044613;28;20040;-56
2023/11/15 02:08:25;;;;;;;3.95;0.70;;;;;;;;;;5049618;28;20056;-56
2023/11/15 02:10:51;;;;;;;1.95;0.75;;;;;;;;;;5050805;28;20501;-56
2023/11/15 02:13:25;;;;;;;1.33;0.70;;;;;;;;;;5049620;28;20060;-57
2023/11/15 02:15:52;;;;;;;1.27;0.70;;;;;;;;;;5047028;28;20037;-54
2023/11/15 02:18:21;;;;;;;0.75;0.43;;;;;;;;;;5043036;28;20041;-58
2023/11/15 02:20:47;;;;;;;0.95;0.60;;;;;;;;;;5043177;28;20041;-56
2023/11/15 02:23:14;;;;;;;2.78;0.98;;;;;;;;;;5044298;28;20041;-57
2023/11/15 02:25:40;;;;;;;1.75;0.70;;;;;;;;;;5048751;28;20060;-58
2023/11/15 02:28:08;;;;;;;2.28;0.63;;;;;;;;;;5048584;28;20414;-58
2023/11/15 02:30:34;;;;;;;1.17;0.55;;;;;;;;;;5047626;28;20045;-55
2023/11/15 02:33:00;;;;;;;1.58;0.65;;;;;;;;;;5050117;28;20048;-54
2023/11/15 02:35:27;;;;;;;2.67;0.60;;;;;;;;;;5049020;28;20061;-57
2023/11/15 02:37:53;;;;;;;2.83;0.88;;;;;;;;;;5048817;28;20052;-57
2023/11/15 02:40:19;;;;;;;1.48;0.50;;;;;;;;;;5050281;28;20048;-55
2023/11/15 02:42:45;;;;;;;1.75;0.60;;;;;;;;;;5048833;28;20040;-57
2023/11/15 02:45:18;;;;;;;2.60;0.73;;;;;;;;;;5048255;28;20048;-57
2023/11/15 02:47:44;;;;;;;2.05;0.57;;;;;;;;;;5049056;28;20505;-59
2023/11/15 02:50:10;;;;;;;0.60;0.60;;;;;;;;;;5049918;28;20417;-54
2023/11/15 02:52:36;;;;;;;0.88;0.60;;;;;;;;;;5049589;28;20029;-57
2023/11/15 02:55:03;;;;;;;1.67;0.50;;;;;;;;;;5046592;28;20059;-56
2023/11/15 02:57:30;;;;;;;3.03;0.70;;;;;;;;;;5049633;28;20045;-56
2023/11/15 02:59:56;;;;;;;1.50;0.50;;;;;;;;;;5047610;28;20037;-57
2023/11/15 03:02:22;;;;;;;0.47;0.47;;;;;;;;;;5049182;28;20029;-58
2023/11/15 03:04:48;;;;;;;2.03;0.50;;;;;;;;;;5046466;28;20049;-57
2023/11/15 03:07:14;;;;;;;2.05;0.40;;;;;;;;;;5047829;28;20517;-56
2023/11/15 03:09:40;;;;;;;2.38;0.60;;;;;;;;;;5049889;28;20041;-56
2023/11/15 03:12:12;;;;;;;1.08;0.68;;;;;;;;;;5047495;28;20043;-57
2023/11/15 03:14:38;;;;;;;0.73;0.50;;;;;;;;;;5049353;28;20036;-56
2023/11/15 03:17:16;;;;;;;1.70;0.70;;;;;;;;;;5044207;28;20485;-58
2023/11/15 03:19:42;;;;;;;0.88;0.60;;;;;;;;;;5048633;28;20524;-58
2023/11/15 03:22:14;;;;;;;1.50;0.60;;;;;;;;;;5047981;28;20036;-56
2023/11/15 03:24:42;;;;;;;1.38;0.50;;;;;;;;;;5048782;28;20048;-56
2023/11/15 03:27:08;;;;;;;2.35;0.50;;;;;;;;;;5046576;28;20049;-55
2023/11/15 03:29:34;;;;;;;1.55;0.50;;;;;;;;;;5048242;28;20033;-55
2023/11/15 03:32:00;;;;;;;0.88;0.50;;;;;;;;;;5048408;28;20063;-56
2023/11/15 03:34:28;;;;;;;2.10;0.60;;;;;;;;;;5049304;28;20045;-58
2023/11/15 03:37:01;;;;;;;2.13;0.50;;;;;;;;;;5047810;28;20031;-56
2023/11/15 03:39:27;;;;;;;2.60;0.80;;;;;;;;;;5047917;28;20498;-58
2023/11/15 03:41:53;;;;;;;2.35;0.50;;;;;;;;;;5048849;28;20397;-57
2023/11/15 03:44:19;;;;;;;2.50;0.60;;;;;;;;;;5047619;28;20040;-57
2023/11/15 03:46:45;;;;;;;2.83;0.52;;;;;;;;;;5027347;28;20041;-57
2023/11/15 03:49:11;;;;;;;2.38;0.68;;;;;;;;;;5047655;28;20401;-57
2023/11/15 03:51:38;;;;;;;1.15;0.52;;;;;;;;;;5049454;28;20037;-58
2023/11/15 03:54:04;;;;;;;1.13;0.50;;;;;;;;;;5047438;28;20402;-58
2023/11/15 03:56:30;;;;;;;2.85;0.98;;;;;;;;;;5047907;28;20420;-57
2023/11/15 03:58:57;;;;;;;1.35;0.60;;;;;;;;;;5047139;28;20041;-57
2023/11/15 04:01:24;;;;;;;3.50;0.82;;;;;;;;;;5048659;28;20033;-56
2023/11/15 04:03:50;;;;;;;2.20;0.63;;;;;;;;;;5046632;28;20052;-57
2023/11/15 04:06:16;;;;;;;1.85;0.50;;;;;;;;;;5047313;28;20033;-57
2023/11/15 04:08:42;;;;;;;1.27;1.00;;;;;;;;;;5044562;28;20482;-55
2023/11/15 04:11:08;;;;;;;3.08;0.80;;;;;;;;;;5048034;28;20075;-57
2023/11/15 04:13:35;;;;;;;0.82;0.50;;;;;;;;;;5042828;28;20033;-56
2023/11/15 04:16:03;;;;;;;1.45;0.73;;;;;;;;;;5040826;28;20029;-56
2023/11/15 04:18:30;;;;;;;0.80;0.70;;;;;;;;;;5040750;28;20029;-56
2023/11/15 04:20:57;;;;;;;1.48;0.70;;;;;;;;;;5046102;28;20045;-59
2023/11/15 04:23:24;;;;;;;0.50;0.50;;;;;;;;;;5048843;28;20043;-57
2023/11/15 04:25:51;;;;;;;0.93;0.60;;;;;;;;;;5046438;28;20047;-56
2023/11/15 04:28:24;;;;;;;2.72;0.80;;;;;;;;;;5041685;28;20040;-57
2023/11/15 04:30:56;;;;;;;3.25;0.70;;;;;;;;;;5047942;28;20072;-55
2023/11/15 04:33:28;;;;;;;0.95;0.60;;;;;;;;;;5048716;28;20060;-55
2023/11/15 04:35:54;;;;;;;1.13;0.60;;;;;;;;;;5046115;28;20498;-57
2023/11/15 04:38:21;;;;;;;3.33;0.57;;;;;;;;;;5047059;28;20532;-57
2023/11/15 04:40:47;;;;;;;0.70;0.68;;;;;;;;;;5048052;28;20040;-54
2023/11/15 04:43:13;;;;;;;4.57;0.70;;;;;;;;;;5046896;28;20045;-58
2023/11/15 04:45:45;;;;;;;3.80;0.90;;;;;;;;;;5045903;28;20045;-58
2023/11/15 04:48:11;;;;;;;1.80;1.25;;;;;;;;;;5047617;28;20406;-57
2023/11/15 04:50:37;;;;;;;3.13;0.80;;;;;;;;;;5046438;28;20402;-56
2023/11/15 04:53:07;;;;;;;2.10;0.80;;;;;;;;;;5047509;28;20033;-57
2023/11/15 04:55:33;;;;;;;3.58;0.75;;;;;;;;;;5046482;28;20036;-57
2023/11/15 04:57:59;;;;;;;0.90;0.80;;;;;;;;;;5047565;28;20417;-56
2023/11/15 05:00:25;;;;;;;2.92;0.82;;;;;;;;;;5047044;28;20033;-57
2023/11/15 05:02:51;;;;;;;2.63;0.90;;;;;;;;;;5043573;28;20029;-57
2023/11/15 05:05:17;;;;;;;3.20;0.88;;;;;;;;;;5046667;28;20450;-57
2023/11/15 05:07:43;;;;;;;1.67;0.80;;;;;;;;;;5048132;28;20033;-58
2023/11/15 05:10:16;;;;;;;2.45;1.00;;;;;;;;;;5048162;28;20414;-55
2023/11/15 05:12:42;;;;;;;1.10;0.80;;;;;;;;;;5048361;28;20036;-56
2023/11/15 05:15:09;;;;;;;1.27;0.80;;;;;;;;;;5039641;28;20048;-57
2023/11/15 05:17:36;;;;;;;2.78;0.98;;;;;;;;;;5041457;28;20052;-58
2023/11/15 05:20:03;;;;;;;1.15;0.75;;;;;;;;;;5045952;28;20418;-57
2023/11/15 05:22:29;;;;;;;1.63;0.93;;;;;;;;;;5047550;28;20525;-57
2023/11/15 05:24:55;;;;;;;1.85;0.73;;;;;;;;;;5047037;28;20417;-57
2023/11/15 05:27:21;;;;;;;3.72;0.70;;;;;;;;;;5047242;28;20405;-58
2023/11/15 05:29:47;;;;;;;1.00;0.70;;;;;;;;;;5045413;28;20045;-57
2023/11/15 05:32:14;;;;;;;4.43;0.82;;;;;;;;;;5047093;28;20028;-56
2023/11/15 05:34:40;;;;;;;4.10;1.00;;;;;;;;;;5047533;28;20045;-53
2023/11/15 05:37:06;;;;;;;3.13;0.90;;;;;;;;;;5050298;28;20033;-55
2023/11/15 05:39:32;;;;;;;5.85;1.17;;;;;;;;;;5051730;28;20060;-56
2023/11/15 05:41:59;;;;;;;4.28;0.93;;;;;;;;;;5051159;28;20095;-58
2023/11/15 05:44:26;;;;;;;7.15;1.33;;;;;;;;;;5050555;28;20060;-58
2023/11/15 05:46:55;;;;;;;1.83;0.55;;;;;;;;;;5049224;28;20033;-57
2023/11/15 05:49:21;;;;;;;2.38;0.73;;;;;;;;;;5051527;28;20029;-56
2023/11/15 05:51:47;;;;;;;1.92;0.90;;;;;;;;;;5051003;28;20033;-57
2023/11/15 05:54:14;;;;;;;3.70;0.95;;;;;;;;;;5049600;28;20056;-57
2023/11/15 05:56:49;;;;;;;1.00;0.60;;;;;;;;;;5049205;28;20041;-57
2023/11/15 05:59:15;;;;;;;0.90;0.50;;;;;;;;;;5048625;28;20051;-56
2023/11/15 06:01:41;;;;;;;2.60;0.80;;;;;;;;;;5050004;28;20032;-57
2023/11/15 06:04:10;;;;;;;0.98;0.73;;;;;;;;;;5049666;28;20043;-59
2023/11/15 06:06:36;;;;;;;3.10;0.88;;;;;;;;;;5050039;28;20033;-55
2023/11/15 06:09:04;;;;;;;1.35;0.65;;;;;;;;;;5050826;28;20152;-56
2023/11/15 06:11:31;;;;;;;3.75;0.80;;;;;;;;;;5044331;28;20525;-55
2023/11/15 06:13:57;;;;;;;3.20;0.95;;;;;;;;;;5043879;28;20049;-56
2023/11/15 06:16:24;;;;;;;2.38;0.93;;;;;;;;;;5042507;28;20397;-56
2023/11/15 06:18:51;;;;;;;1.70;0.80;;;;;;;;;;5050504;28;20401;-54
2023/11/15 06:21:20;;;;;;;3.30;0.80;;;;;;;;;;5050959;28;20033;-55
2023/11/15 06:23:47;;;;;;;1.83;1.10;;;;;;;;;;5050616;28;20049;-55
2023/11/15 06:26:13;;;;;;;1.75;0.77;;;;;;;;;;5048700;28;20043;-56
2023/11/15 06:28:40;;;;;;;3.13;1.02;;;;;;;;;;5050899;28;20032;-57
2023/11/15 06:31:12;;;;;;;2.88;0.63;;;;;;;;;;5050038;28;20048;-56
2023/11/15 06:33:44;;;;;;;2.95;0.93;;;;;;;;;;5050117;28;20033;-58
2023/11/15 06:36:17;;;;;;;3.67;0.95;;;;;;;;;;5048698;28;20048;-58
2023/11/15 06:38:44;;;;;;;5.22;0.95;;;;;;;;;;5050856;28;20040;-56
2023/11/15 06:41:10;;;;;;;2.28;1.05;;;;;;;;;;5050193;28;20036;-58
2023/11/15 06:43:36;;;;;;;3.67;0.70;;;;;;;;;;5047962;28;20044;-56
2023/11/15 06:46:08;;;;;;;2.25;0.70;;;;;;;;;;5047909;28;20041;-55
2023/11/15 06:48:34;;;;;;;1.17;0.70;;;;;;;;;;5050086;28;20049;-55
2023/11/15 06:51:01;;;;;;;1.75;0.70;;;;;;;;;;5050190;28;20028;-55
2023/11/15 06:53:27;;;;;;;4.35;0.90;;;;;;;;;;5050837;28;20028;-55
2023/11/15 06:55:59;;;;;;;5.10;1.80;;;;;;;;;;5045575;28;20552;-53
2023/11/15 06:58:25;;;;;;;1.10;0.73;;;;;;;;;;5051145;28;20041;-54
2023/11/15 07:00:52;;;;;;;1.25;0.68;;;;;;;;;;5048172;28;20524;-55
2023/11/15 07:03:18;;;;;;;1.45;0.60;;;;;;;;;;5050126;28;20044;-55
2023/11/15 07:05:48;;;;;;;1.48;0.60;;;;;;;;;;5047530;28;20045;-55
2023/11/15 07:08:21;;;;;;;3.25;0.60;;;;;;;;;;5049782;28;20036;-55
2023/11/15 07:10:47;;;;;;;1.52;0.60;;;;;;;;;;5043777;28;20044;-55
2023/11/15 07:13:14;;;;;;;1.65;0.90;;;;;;;;;;5040942;28;20063;-55
2023/11/15 07:15:40;;;;;;;2.95;0.80;;;;;;;;;;5043377;28;20044;-54
2023/11/15 07:18:06;;;;;;;0.90;0.57;;;;;;;;;;5049106;28;20032;-55
2023/11/15 07:20:34;;;;;;;0.85;0.80;;;;;;;;;;5050010;28;20033;-55
2023/11/15 07:23:02;;;;;;;5.80;1.05;;;;;;;;;;5049289;28;20049;-55
2023/11/15 07:25:29;;;;;;;0.65;0.65;;;;;;;;;;5048338;28;20040;-55
2023/11/15 07:27:58;;;;;;;1.38;0.98;;;;;;;;;;5049199;28;20049;-53
2023/11/15 07:30:25;;;;;;;4.73;1.33;;;;;;;;;;5043344;28;20466;-55
2023/11/15 07:32:53;;;;;;;3.35;1.00;;;;;;;;;;5046642;28;20816;-55
2023/11/15 07:35:19;;;;;;;4.25;1.13;;;;;;;;;;5047507;28;20044;-55
2023/11/15 07:37:52;;;;;;;4.10;1.10;;;;;;;;;;5049279;28;20044;-53
2023/11/15 07:40:18;;;;;;;1.63;0.80;;;;;;;;;;5048407;28;20041;-53
2023/11/15 07:42:45;;;;;;;3.47;1.25;;;;;;;;;;5049291;28;20053;-55
2023/11/15 07:45:11;;;;;;;3.10;1.20;;;;;;;;;;5047190;28;20048;-55
2023/11/15 07:47:38;;;;;;;3.22;1.05;;;;;;;;;;5048649;28;20391;-54
2023/11/15 07:50:04;;;;;;;2.28;1.00;;;;;;;;;;5047707;28;20044;-56
2023/11/15 07:52:31;;;;;;;3.17;1.08;;;;;;;;;;5049376;28;20037;-56
2023/11/15 07:54:58;;;;;;;2.10;0.95;;;;;;;;;;5046329;28;20024;-56
2023/11/15 07:57:24;;;;;;;2.88;0.70;;;;;;;;;;5034764;28;20041;-54
2023/11/15 07:59:51;;;;;;;2.08;0.80;;;;;;;;;;5045126;28;20525;-56
2023/11/15 08:02:18;;;;;;;4.00;0.98;;;;;;;;;;5042834;28;20049;-56
2023/11/15 08:04:44;;;;;;;2.33;0.77;;;;;;;;;;5047301;28;20560;-55
2023/11/15 08:07:13;;;;;;;1.02;0.70;;;;;;;;;;5047407;28;20041;-55
2023/11/15 08:09:39;;;;;;;1.65;0.65;;;;;;;;;;5042475;28;20044;-54
2023/11/15 08:12:05;;;;;;;1.50;0.70;;;;;;;;;;5040374;28;20421;-55
2023/11/15 08:14:32;;;;;;;3.80;1.13;;;;;;;;;;5046141;28;20049;-55
2023/11/15 08:17:00;;;;;;;3.03;1.02;;;;;;;;;;5046837;28;20032;-55
2023/11/15 08:19:26;;;;;;;1.48;0.70;;;;;;;;;;5042264;28;20044;-55
2023/11/15 08:21:52;;;;;;;1.58;0.70;;;;;;;;;;5047521;28;20513;-57
2023/11/15 08:24:22;;;;;;;2.58;0.80;;;;;;;;;;5048186;28;20037;-55
2023/11/15 08:26:52;;;;;;;3.00;0.80;;;;;;;;;;5047186;28;20047;-55
2023/11/15 08:29:19;;;;;;;5.65;0.80;;;;;;;;;;5047973;28;20025;-55
2023/11/15 08:31:51;;;;;;;2.25;0.90;;;;;;;;;;5048416;28;20044;-55
2023/11/15 08:34:20;;;;;;;4.85;1.02;;;;;;;;;;5048249;28;20409;-55
2023/11/15 08:36:48;;;;;;;4.10;1.35;;;;;;;;;;5047449;28;20409;-55
2023/11/15 08:39:15;;;;;;;5.65;1.45;;;;;;;;;;5044586;28;20033;-56
2023/11/15 08:41:41;;;;;;;3.85;1.10;;;;;;;;;;5048094;28;20049;-58
2023/11/15 08:44:09;;;;;;;2.00;0.85;;;;;;;;;;5047801;28;20057;-57
2023/11/15 08:46:41;;;;;;;1.77;0.80;;;;;;;;;;5046883;28;20052;-55
2023/11/15 08:49:07;;;;;;;1.75;0.70;;;;;;;;;;5047942;28;20052;-58
2023/11/15 08:51:33;;;;;;;1.92;0.75;;;;;;;;;;5047968;28;20048;-57
2023/11/15 08:53:59;;;;;;;2.38;0.85;;;;;;;;;;5047156;28;20494;-55
2023/11/15 08:56:26;;;;;;;3.00;1.08;;;;;;;;;;5040009;28;20049;-57
2023/11/15 08:58:54;;;;;;;1.42;0.75;;;;;;;;;;5041591;28;20040;-57
2023/11/15 09:01:23;;;;;;;3.70;0.98;;;;;;;;;;5038799;28;20061;-55
2023/11/15 09:03:49;;;;;;;4.40;1.92;;;;;;;;;;5034294;28;20502;-57
2023/11/15 09:06:16;;;;;;;2.22;1.40;;;;;;;;;;5038204;28;20048;-55
2023/11/15 09:08:44;;;;;;;3.70;1.13;;;;;;;;;;5047862;28;20052;-56
2023/11/15 09:11:12;;;;;;;1.75;1.20;;;;;;;;;;5041781;28;20859;-55
2023/11/15 09:13:45;;;;;;;2.38;0.90;;;;;;;;;;5043924;28;20717;-58
2023/11/15 09:16:12;;;;;;;2.85;0.95;;;;;;;;;;5050191;28;20040;-58
2023/11/15 09:18:38;;;;;;;3.33;1.10;;;;;;;;;;5051945;28;20041;-56
2023/11/15 09:21:05;;;;;;;3.22;1.30;;;;;;;;;;5051404;28;20506;-58
2023/11/15 09:23:31;;;;;;;2.50;0.93;;;;;;;;;;5052245;28;20033;-56
2023/11/15 09:26:00;;;;;;;2.33;0.90;;;;;;;;;;5050431;28;20024;-56
2023/11/15 09:28:26;;;;;;;6.78;3.55;;;;;;;;;;5045617;28;20045;-57
2023/11/15 09:30:52;;;;;;;4.55;1.92;;;;;;;;;;5051438;28;20029;-55
2023/11/15 09:33:19;;;;;;;6.88;1.73;;;;;;;;;;5051561;28;20033;-56
2023/11/15 09:35:45;;;;;;;4.05;1.08;;;;;;;;;;5050133;28;20060;-57
2023/11/15 09:38:13;;;;;;;1.73;0.82;;;;;;;;;;5050107;28;20494;-55
2023/11/15 09:40:41;;;;;;;3.03;1.33;;;;;;;;;;5051816;28;20041;-54
2023/11/15 09:43:14;;;;;;;3.58;1.92;;;;;;;;;;5051524;28;20041;-54
2023/11/15 09:45:44;;;;;;;4.13;2.42;;;;;;;;;;5049506;28;20033;-55
2023/11/15 09:48:11;;;;;;;23.67;7.63;;;;;;;;;;5050924;28;20045;-54
2023/11/15 09:50:37;;;;;;;24.88;6.07;;;;;;;;;;5051526;28;20043;-54
2023/11/15 09:53:07;;;;;;;13.95;3.78;;;;;;;;;;5050830;28;20125;-53
2023/11/15 09:55:34;;;;;;;6.95;2.92;;;;;;;;;;5050153;28;20029;-55
2023/11/15 09:58:01;;;;;;;7.13;2.03;;;;;;;;;;5050677;28;20032;-56
2023/11/15 10:00:29;;;;;;;4.40;1.50;;;;;;;;;;5050101;28;20043;-55
2023/11/15 10:02:56;;;;;;;13.63;3.75;;;;;;;;;;5046387;28;20025;-57
2023/11/15 10:05:26;;;;;;;3.50;1.20;;;;;;;;;;5057733;28;20025;-56
2023/11/15 10:08:10;;;;;;;1.77;1.00;;;;;;;;;;5044333;28;20064;-56
2023/11/15 10:10:43;;;;;;;5.82;1.20;;;;;;;;;;5043804;28;20041;-56
2023/11/15 10:13:10;;;;;;;6.38;1.33;;;;;;;;;;5050355;28;20434;-57
2023/11/15 10:15:36;;;;;;;4.10;1.02;;;;;;;;;;5049130;28;20048;-57
2023/11/15 10:18:03;;;;;;;6.07;1.27;;;;;;;;;;5050550;28;20418;-56
2023/11/15 10:20:30;;;;;;;2.80;1.10;;;;;;;;;;5051322;28;20052;-55
2023/11/15 10:22:59;;;;;;;2.15;1.23;;;;;;;;;;5051243;28;20045;-56
2023/11/15 10:25:26;;;;;;;;;;;;;;;;;;5043138;28;20051;-54
2023/11/15 10:28:13;;;;;;;2.25;1.00;;;;;;;;;;5048277;28;19920;-54
2023/11/15 10:30:39;;;;;;;4.35;1.58;;;;;;;;;;5044034;28;20044;-54
2023/11/15 10:33:10;;;;;;;2.88;1.30;;;;;;;;;;5050504;28;20037;-55
2023/11/15 10:35:37;;;;;;;4.45;1.23;;;;;;;;;;5049254;28;20033;-55
2023/11/15 10:38:12;;;;;;;7.18;1.08;;;;;;;;;;5046684;28;20027;-53
2023/11/15 10:40:39;;;;;;;4.35;1.02;;;;;;;;;;5050909;28;20045;-56
2023/11/15 10:43:07;;;;;;;3.58;1.17;;;;;;;;;;5050196;28;20053;-55
2023/11/15 10:45:36;;;;;;;3.80;1.02;;;;;;;;;;5048533;28;20037;-54
2023/11/15 10:48:04;;;;;;;3.53;1.08;;;;;;;;;;5050125;28;20037;-54
2023/11/15 10:50:33;;;;;;;4.40;1.35;;;;;;;;;;5050432;28;20033;-55
2023/11/15 10:53:01;;;;;;;1.55;0.95;;;;;;;;;;5050146;28;20058;-57
2023/11/15 10:55:31;;;;;;;1.77;0.77;;;;;;;;;;5042457;28;20033;-56
2023/11/15 10:58:02;;;;;;;3.95;1.73;;;;;;;;;;5049871;28;20421;-54
2023/11/15 11:00:30;;;;;;;4.22;1.00;;;;;;;;;;5044867;28;20036;-54
2023/11/15 11:02:57;;;;;;;3.08;1.60;;;;;;;;;;5044726;28;20049;-55
2023/11/15 11:05:44;;;;;;;4.72;1.10;;;;;;;;;;5040194;28;20041;-55
2023/11/15 11:08:44;;;;;;;3.85;1.30;;;;;;;;;;5047869;28;20715;-55
2023/11/15 11:11:10;;;;;;;2.83;1.13;;;;;;;;;;5023168;28;20068;-56
2023/11/15 11:13:40;;;;;;;3.38;1.13;;;;;;;;;;5049187;28;20044;-54
2023/11/15 11:16:24;;;;;;;2.65;1.30;;;;;;;;;;5047377;28;20056;-55
2023/11/15 11:19:11;;;;;;;1.73;1.15;;;;;;;;;;5050247;28;20036;-55
2023/11/15 11:22:06;;;;;;;2.15;0.80;;;;;;;;;;5046720;28;20051;-53
2023/11/15 11:24:39;;;;;;;2.10;0.90;;;;;;;;;;5044007;28;20055;-55
2023/11/15 11:27:11;;;;;;;3.15;0.98;;;;;;;;;;5047982;28;20048;-55
2023/11/15 11:30:02;;;;;;;4.72;1.10;;;;;;;;;;5045103;28;20036;-55
2023/11/15 11:32:35;;;;;;;3.58;1.27;;;;;;;;;;5042630;28;20281;-55
2023/11/15 11:35:01;;;;;;;7.53;1.45;;;;;;;;;;5047792;28;20041;-54
2023/11/15 11:37:37;;;;;;;2.45;1.10;;;;;;;;;;5048414;28;20043;-55
2023/11/15 11:40:07;;;;;;;2.72;1.00;;;;;;;;;;5045150;28;20041;-55
2023/11/15 11:42:33;;;;;;;2.83;0.95;;;;;;;;;;5048519;28;20029;-56
2023/11/15 11:44:59;;;;;;;3.30;1.25;;;;;;;;;;5047312;28;20044;-56
2023/11/15 11:51:25;;;;;;;3.40;1.27;;;;;;;;;;5041835;28;20033;-55
2023/11/15 11:53:54;;;;;;;1.27;0.60;;;;;;;;;;5041777;28;20060;-55
2023/11/15 11:56:20;;;;;;;3.17;1.33;;;;;;;;;;5037472;28;20029;-54
2023/11/15 11:58:46;;;;;;;2.00;0.82;;;;;;;;;;5041040;28;20048;-55
2023/11/15 12:01:12;;;;;;;3.88;1.50;;;;;;;;;;5045508;28;20051;-55
2023/11/15 12:03:47;;;;;;;3.05;1.20;;;;;;;;;;5042268;28;20572;-55
2023/11/15 12:06:13;;;;;;;2.60;0.63;;;;;;;;;;5043905;28;20033;-55
2023/11/15 12:08:46;;;;;;;1.67;0.90;;;;;;;;;;5048120;28;20414;-57
2023/11/15 12:11:17;;;;;;;2.53;0.90;;;;;;;;;;5037612;28;20049;-54
2023/11/15 12:13:48;;;;;;;2.00;1.25;;;;;;;;;;5037387;28;20033;-55
2023/11/15 12:16:19;;;;;;;1.63;0.65;;;;;;;;;;5030314;28;20064;-54
2023/11/15 12:19:05;;;;;;;1.70;0.70;;;;;;;;;;5030852;28;20402;-55
2023/11/15 12:21:35;;;;;;;1.35;0.80;;;;;;;;;;5042339;28;20041;-55
2023/11/15 12:24:09;;;;;;;1.98;0.60;;;;;;;;;;5044738;28;20028;-55
2023/11/15 12:26:47;;;;;;;1.10;0.47;;;;;;;;;;5047366;28;20049;-56
2023/11/15 12:29:24;;;;;;;1.42;0.52;;;;;;;;;;5045121;28;20045;-55
2023/11/15 12:31:52;;;;;;;2.97;0.70;;;;;;;;;;5043659;28;20033;-59
2023/11/15 12:34:19;;;;;;;1.45;0.55;;;;;;;;;;5045955;28;20068;-56
2023/11/15 12:36:46;;;;;;;1.20;0.50;;;;;;;;;;5042789;28;20041;-56
2023/11/15 12:39:13;;;;;;;1.77;0.40;;;;;;;;;;5048237;28;20041;-56
2023/11/15 12:41:46;;;;;;;2.50;0.60;;;;;;;;;;5042360;28;20055;-56
2023/11/15 12:44:13;;;;;;;1.58;0.50;;;;;;;;;;5045352;28;20088;-56
2023/11/15 12:46:40;;;;;;;1.70;0.70;;;;;;;;;;5043446;28;20039;-55
2023/11/15 12:49:13;;;;;;;1.05;0.50;;;;;;;;;;5044544;28;20045;-56
2023/11/15 12:51:47;;;;;;;0.98;0.68;;;;;;;;;;5042987;28;20064;-57
2023/11/15 12:54:22;;;;;;;1.80;0.55;;;;;;;;;;5040319;28;20581;-56
2023/11/15 12:57:07;;;;;;;1.20;0.55;;;;;;;;;;5045122;28;20059;-56
2023/11/15 12:59:38;;;;;;;1.27;0.70;;;;;;;;;;5044524;28;20041;-54
2023/11/15 13:02:05;;;;;;;2.72;0.70;;;;;;;;;;5046961;28;20056;-54
2023/11/15 13:04:51;;;;;;;4.28;0.70;;;;;;;;;;5039661;28;20063;-55
2023/11/15 13:07:17;;;;;;;1.92;0.70;;;;;;;;;;5046327;28;20041;-56
2023/11/15 13:09:44;;;;;;;2.15;0.75;;;;;;;;;;5047133;28;20044;-55
2023/11/15 13:12:26;;;;;;;5.43;0.82;;;;;;;;;;5046756;28;20049;-56
2023/11/15 13:14:53;;;;;;;2.80;0.77;;;;;;;;;;5046254;28;20056;-56
2023/11/15 13:17:19;;;;;;;1.27;0.75;;;;;;;;;;5045257;28;20041;-55
2023/11/15 13:19:45;;;;;;;4.38;0.68;;;;;;;;;;5046743;28;20023;-57
2023/11/15 13:22:11;;;;;;;3.95;0.88;;;;;;;;;;5046567;28;20037;-55
2023/11/15 13:24:39;;;;;;;1.10;0.70;;;;;;;;;;5045791;28;20045;-54
2023/11/15 13:27:05;;;;;;;3.88;0.73;;;;;;;;;;5041960;28;20060;-56
2023/11/15 13:29:31;;;;;;;3.92;0.70;;;;;;;;;;5047596;28;20055;-55
2023/11/15 13:31:59;;;;;;;2.30;0.73;;;;;;;;;;5045029;28;20148;-56
2023/11/15 13:34:25;;;;;;;2.25;0.80;;;;;;;;;;5044478;28;20033;-56
2023/11/15 13:36:51;;;;;;;1.92;0.80;;;;;;;;;;5040113;28;20040;-55
2023/11/15 13:39:18;;;;;;;1.83;0.60;;;;;;;;;;5042032;28;20049;-56
2023/11/15 13:41:44;;;;;;;2.78;0.60;;;;;;;;;;5043663;28;20432;-56
2023/11/15 13:44:10;;;;;;;1.88;0.80;;;;;;;;;;5042448;28;20045;-56
2023/11/15 13:46:37;;;;;;;7.10;2.90;;;;;;;;;;5038758;28;20521;-55
2023/11/15 13:49:05;;;;;;;3.05;1.48;;;;;;;;;;5044540;28;20570;-56
2023/11/15 13:51:31;;;;;;;5.55;1.27;;;;;;;;;;5035241;28;20024;-56
2023/11/15 13:53:57;;;;;;;3.90;1.10;;;;;;;;;;5046806;28;20040;-55
2023/11/15 13:56:23;;;;;;;6.65;0.95;;;;;;;;;;5039262;28;20033;-56
2023/11/15 13:58:51;;;;;;;12.82;3.30;;;;;;;;;;5045882;28;20060;-54
2023/11/15 14:01:17;;;;;;;10.38;2.40;;;;;;;;;;5048770;28;20044;-59
2023/11/15 14:03:43;;;;;;;6.18;0.90;;;;;;;;;;5045705;28;20060;-58
2023/11/15 14:06:10;;;;;;;1.10;0.80;;;;;;;;;;5048509;28;20028;-57
2023/11/15 14:08:38;;;;;;;5.38;0.95;;;;;;;;;;5050468;28;20049;-56
2023/11/15 14:11:06;;;;;;;4.65;1.52;;;;;;;;;;5050979;28;20029;-55
2023/11/15 14:13:34;;;;;;;4.07;1.17;;;;;;;;;;5044345;28;20044;-56
2023/11/15 14:16:00;;;;;;;5.18;1.83;;;;;;;;;;5048933;28;20049;-58
2023/11/15 14:18:27;;;;;;;4.32;1.35;;;;;;;;;;5050264;28;20037;-56
2023/11/15 14:20:56;;;;;;;5.45;1.40;;;;;;;;;;5049277;28;20667;-56
2023/11/15 14:23:22;;;;;;;3.33;1.20;;;;;;;;;;5050238;28;20124;-53
2023/11/15 14:25:48;;;;;;;7.18;1.58;;;;;;;;;;5047054;28;20041;-55
2023/11/15 14:28:15;;;;;;;3.78;0.93;;;;;;;;;;5050333;28;20045;-56
2023/11/15 14:30:43;;;;;;;5.43;1.75;;;;;;;;;;5046773;28;20049;-56
2023/11/15 14:33:11;;;;;;;4.03;1.33;;;;;;;;;;5049016;28;20049;-55
2023/11/15 14:35:41;;;;;;;3.58;1.35;;;;;;;;;;5044132;28;20060;-55
2023/11/15 14:38:10;;;;;;;4.38;1.23;;;;;;;;;;5044031;28;20033;-57
2023/11/15 14:40:38;;;;;;;2.92;2.10;;;;;;;;;;5050663;28;20049;-56
2023/11/15 14:43:05;;;;;;;3.15;1.02;;;;;;;;;;5045654;28;20064;-55
2023/11/15 14:45:34;;;;;;;5.70;1.10;;;;;;;;;;5047310;28;20049;-56
2023/11/15 14:48:01;;;;;;;5.85;1.15;;;;;;;;;;5041425;28;20427;-57
2023/11/15 14:50:29;;;;;;;6.30;1.60;;;;;;;;;;5044237;28;20045;-56
2023/11/15 14:53:07;;;;;;;4.03;1.30;;;;;;;;;;5044456;28;20489;-56